Time;durP1;ratioP1;P1;durP2;ratioP2;P2;SDS_P1;SDS_P2;PMS_P1;PMS_P2;Temp;Humidity;BMP_temperature;BMP_pressure;BME280_temperature;BME280_humidity;BME280_pressure;Samples;Min_cycle;Max_cycle;Signal;HPM_P1;HPM_P2
2021/12/20 00:00:13;;;;;;;11.50;5.13;;;;;;;5.08;69.01;94339.78;4992981;28;20562;-76
2021/12/20 00:02:39;;;;;;;8.30;4.93;;;;;;;5.06;68.91;94340.97;4990295;28;20215;-76
2021/12/20 00:05:06;;;;;;;10.03;5.33;;;;;;;4.89;69.17;94323.00;4993099;28;20185;-76
2021/12/20 00:07:32;;;;;;;10.47;5.20;;;;;;;5.13;69.32;94353.06;4992822;28;20181;-76
2021/12/20 00:09:57;;;;;;;10.23;4.60;;;;;;;5.09;69.13;94354.44;4992612;28;20239;-77
2021/12/20 00:12:22;;;;;;;10.10;5.10;;;;;;;4.78;69.15;94328.72;4992480;28;20177;-77
2021/12/20 00:14:48;;;;;;;10.37;4.97;;;;;;;5.00;69.47;94363.41;4992797;28;20217;-74
2021/12/20 00:17:13;;;;;;;10.67;5.33;;;;;;;5.00;69.51;94365.22;4992216;28;20188;-75
2021/12/20 00:19:39;;;;;;;14.60;6.33;;;;;;;5.03;69.43;94352.56;4991292;28;20622;-75
2021/12/20 00:22:04;;;;;;;11.90;5.57;;;;;;;4.97;69.42;94360.34;4991380;28;20204;-75
2021/12/20 00:24:30;;;;;;;7.47;4.73;;;;;;;4.92;69.44;94358.34;4991403;28;20188;-75
2021/12/20 00:26:55;;;;;;;5.93;4.13;;;;;;;4.80;69.86;94357.22;4991746;28;20228;-75
2021/12/20 00:29:20;;;;;;;7.67;4.93;;;;;;;4.87;70.20;94358.06;4992722;28;20194;-75
2021/12/20 00:31:46;;;;;;;7.37;4.87;;;;;;;4.72;70.46;94336.50;4992380;28;20216;-75
2021/12/20 00:34:11;;;;;;;8.47;4.70;;;;;;;4.84;70.58;94348.03;4992193;28;20181;-76
2021/12/20 00:36:37;;;;;;;7.43;4.47;;;;;;;4.71;70.73;94332.28;4992294;28;20180;-75
2021/12/20 00:41:46;;;;;;;6.60;4.57;;;;;;;4.76;70.95;94330.69;4992566;28;20698;-76
2021/12/20 00:44:12;;;;;;;6.27;4.07;;;;;;;4.67;71.05;94337.03;4992402;28;20268;-76
2021/12/20 00:46:38;;;;;;;8.53;5.10;;;;;;;4.64;71.38;94324.41;4992609;28;20177;-76
2021/12/20 00:49:03;;;;;;;6.97;4.67;;;;;;;4.60;71.49;94314.53;4992623;28;20646;-76
2021/12/20 00:51:28;;;;;;;6.40;4.30;;;;;;;4.55;71.72;94328.13;4992314;28;20181;-76
2021/12/20 00:53:54;;;;;;;7.33;4.93;;;;;;;4.55;71.84;94318.50;4992412;28;20180;-76
2021/12/20 00:56:19;;;;;;;5.10;3.73;;;;;;;4.61;71.52;94308.31;4992402;28;20193;-76
2021/12/20 00:58:45;;;;;;;4.77;3.70;;;;;;;4.63;71.03;94308.94;4992401;28;20193;-76
2021/12/20 01:01:10;;;;;;;5.57;4.00;;;;;;;4.69;71.51;94314.22;4992370;28;20276;-76
2021/12/20 01:03:36;;;;;;;10.20;3.47;;;;;;;4.76;71.17;94299.41;4992047;28;20208;-76
2021/12/20 01:06:02;;;;;;;6.43;3.90;;;;;;;4.79;70.57;94300.84;4992283;28;20183;-76
2021/12/20 01:08:32;;;;;;;5.43;3.33;;;;;;;4.84;70.58;94298.50;4992383;28;20181;-76
2021/12/20 01:10:58;;;;;;;5.27;3.77;;;;;;;4.91;70.43;94315.00;4984650;28;20181;-76
2021/12/20 01:13:28;;;;;;;7.33;3.63;;;;;;;4.92;70.42;94311.41;4992238;28;20638;-76
2021/12/20 01:15:55;;;;;;;5.43;4.37;;;;;;;4.95;70.23;94313.59;4992635;28;20177;-76
2021/12/20 01:18:22;;;;;;;5.70;3.90;;;;;;;5.01;69.96;94317.28;4992154;28;20177;-76
2021/12/20 01:20:48;;;;;;;5.70;3.73;;;;;;;5.00;69.74;94329.50;4992064;28;20251;-76
2021/12/20 01:23:14;;;;;;;5.83;3.70;;;;;;;5.07;69.55;94319.91;4991679;28;20212;-76
2021/12/20 01:25:42;;;;;;;5.70;3.23;;;;;;;5.02;69.84;94330.09;4991840;28;20229;-76
2021/12/20 01:28:10;;;;;;;4.50;3.40;;;;;;;4.90;69.38;94319.41;4992269;28;20174;-76
2021/12/20 01:30:38;;;;;;;5.63;3.57;;;;;;;4.91;69.71;94328.84;4992322;28;20177;-76
2021/12/20 01:33:08;;;;;;;6.03;3.60;;;;;;;4.94;69.98;94331.06;4992163;28;20185;-76
2021/12/20 01:35:33;;;;;;;8.43;4.07;;;;;;;4.77;69.46;94298.44;4992204;28;20188;-76
2021/12/20 01:37:59;;;;;;;9.73;3.70;;;;;;;4.93;69.68;94333.84;4994425;28;20185;-76
2021/12/20 01:40:25;;;;;;;5.63;3.93;;;;;;;4.99;69.49;94334.91;4995865;28;20185;-76
2021/12/20 01:42:55;;;;;;;8.57;4.63;;;;;;;4.96;69.62;94333.47;4995812;28;20217;-76
2021/12/20 01:45:23;;;;;;;6.97;4.53;;;;;;;4.97;69.57;94329.88;4995151;28;20185;-76
2021/12/20 01:47:52;;;;;;;6.10;4.40;;;;;;;4.99;69.67;94329.69;4994243;28;20181;-76
2021/12/20 01:52:47;;;;;;;7.20;4.90;;;;;;;4.99;69.44;94340.94;4990746;28;20243;-76
2021/12/20 01:55:18;;;;;;;10.00;4.70;;;;;;;4.98;69.71;94339.31;4995381;28;20181;-76
2021/12/20 01:57:44;;;;;;;6.53;4.13;;;;;;;5.00;69.76;94329.50;4995287;28;20181;-76
2021/12/20 02:00:16;;;;;;;6.30;4.23;;;;;;;5.01;69.12;94328.50;4994895;28;20184;-76
2021/12/20 02:02:43;;;;;;;7.50;4.40;;;;;;;5.00;69.12;94328.69;4994976;28;20217;-75
2021/12/20 02:05:22;;;;;;;5.97;4.00;;;;;;;5.00;69.44;94334.72;4994797;28;20200;-75
2021/12/20 02:07:57;;;;;;;6.27;4.20;;;;;;;5.09;69.40;94338.00;4995057;28;20267;-76
2021/12/20 02:10:23;;;;;;;8.50;4.40;;;;;;;5.04;69.01;94338.56;4995102;28;20180;-76
2021/12/20 02:12:48;;;;;;;8.03;4.80;;;;;;;5.02;69.44;94329.28;4994859;28;20718;-75
2021/12/20 02:15:14;;;;;;;9.70;4.80;;;;;;;4.93;69.75;94324.22;4994940;28;20216;-76
2021/12/20 02:17:40;;;;;;;7.30;4.63;;;;;;;4.81;69.48;94322.34;4994652;28;20181;-75
2021/12/20 02:20:06;;;;;;;7.47;4.70;;;;;;;4.90;69.80;94345.47;4994702;28;20185;-76
2021/12/20 02:22:32;;;;;;;10.27;4.97;;;;;;;4.79;69.99;94309.47;4994639;28;20211;-76
2021/12/20 02:24:58;;;;;;;8.30;4.77;;;;;;;4.99;69.58;94335.72;4994149;28;20185;-76
2021/12/20 02:27:24;;;;;;;11.07;4.83;;;;;;;4.98;69.97;94334.09;4994440;28;20753;-76
2021/12/20 02:30:08;;;;;;;7.10;4.23;;;;;;;4.98;69.86;94339.31;4994897;28;20185;-76
2021/12/20 02:38:27;;;;;;;6.57;4.70;;;;;;;5.01;70.08;94325.91;4994617;28;20247;-75
2021/12/20 02:41:16;;;;;;;9.60;5.30;;;;;;;4.99;70.06;94334.91;4994489;28;20181;-76
2021/12/20 02:43:55;;;;;;;7.10;4.43;;;;;;;4.92;69.84;94340.06;4994322;28;20287;-75
2021/12/20 02:46:43;;;;;;;10.13;4.67;;;;;;;4.73;70.53;94309.44;4986073;28;20657;-76
2021/12/20 02:49:18;;;;;;;9.53;5.37;;;;;;;4.87;70.70;94351.06;4993368;28;20192;-75
2021/12/20 02:51:46;;;;;;;13.10;5.13;;;;;;;4.78;70.60;94326.13;4994241;28;20176;-76
2021/12/20 02:54:12;;;;;;;8.10;5.00;;;;;;;4.90;70.48;94342.88;4993966;28;20188;-75
2021/12/20 02:56:38;;;;;;;11.47;5.37;;;;;;;4.84;70.70;94341.00;4994131;28;20184;-75
2021/12/20 02:59:05;;;;;;;10.00;4.93;;;;;;;4.87;70.95;94342.44;4993965;28;20208;-75
2021/12/20 03:01:31;;;;;;;10.57;5.17;;;;;;;4.82;71.00;94316.13;4993864;28;20267;-76
2021/12/20 03:03:57;;;;;;;10.80;5.50;;;;;;;4.89;70.85;94343.84;4993841;28;20784;-75
2021/12/20 03:06:24;;;;;;;11.67;5.37;;;;;;;4.90;71.01;94337.66;4993767;28;20177;-76
2021/12/20 03:08:52;;;;;;;7.50;4.93;;;;;;;4.90;70.76;94329.84;4993633;28;20184;-76
2021/12/20 03:11:21;;;;;;;8.23;5.17;;;;;;;4.94;70.92;94331.06;4993713;28;20535;-75
2021/12/20 03:13:51;;;;;;;8.67;5.20;;;;;;;4.94;70.82;94333.66;4993990;28;20181;-76
2021/12/20 03:16:16;;;;;;;8.83;5.17;;;;;;;4.98;70.49;94325.47;4993837;28;20619;-76
2021/12/20 03:18:42;;;;;;;7.00;4.50;;;;;;;5.00;70.90;94329.50;4993481;28;20176;-76
2021/12/20 03:21:08;;;;;;;8.67;5.40;;;;;;;5.03;70.65;94325.69;4993675;28;20264;-76
2021/12/20 03:23:33;;;;;;;8.57;5.10;;;;;;;4.92;70.42;94317.41;4993399;28;20208;-76
2021/12/20 03:25:59;;;;;;;12.50;6.63;;;;;;;4.86;70.69;94305.13;4993182;28;20221;-76
2021/12/20 03:28:24;;;;;;;16.03;6.50;;;;;;;5.07;70.56;94332.97;4993472;28;20271;-76
2021/12/20 03:30:50;;;;;;;10.33;6.00;;;;;;;4.97;71.08;94318.63;4993417;28;20708;-76
2021/12/20 03:33:15;;;;;;;10.47;6.60;;;;;;;5.11;70.55;94331.56;4993332;28;20204;-76
2021/12/20 03:35:41;;;;;;;12.47;6.77;;;;;;;4.90;70.94;94324.63;4993313;28;20185;-76
2021/12/20 03:38:06;;;;;;;14.60;8.13;;;;;;;4.99;70.84;94343.53;4993233;28;20658;-76
2021/12/20 03:40:32;;;;;;;16.70;8.00;;;;;;;4.92;70.88;94330.47;4993152;28;20197;-76
2021/12/20 03:42:58;;;;;;;16.13;8.73;;;;;;;4.92;70.54;94325.25;4993405;28;20215;-76
2021/12/20 03:45:24;;;;;;;13.00;7.80;;;;;;;4.89;70.87;94325.59;4993364;28;20181;-76
2021/12/20 03:47:49;;;;;;;10.53;6.17;;;;;;;5.07;71.05;94339.97;4992065;28;20185;-76
2021/12/20 03:50:15;;;;;;;9.00;4.83;;;;;;;5.05;70.56;94337.56;4988805;28;20180;-76
2021/12/20 03:52:41;;;;;;;9.60;5.40;;;;;;;4.97;70.99;94331.69;4992602;28;20185;-76
2021/12/20 03:55:12;;;;;;;12.60;6.63;;;;;;;4.98;70.83;94338.50;4993005;28;20267;-76
2021/12/20 03:57:38;;;;;;;9.77;5.50;;;;;;;5.04;71.09;94348.16;4992678;28;20642;-76
2021/12/20 04:00:10;;;;;;;20.10;9.43;;;;;;;5.11;70.84;94344.63;4992495;28;20192;-76
2021/12/20 04:02:41;;;;;;;16.83;8.23;;;;;;;4.99;70.97;94337.50;4992677;28;20266;-76
2021/12/20 04:05:07;;;;;;;21.07;9.33;;;;;;;5.03;71.62;94343.94;4991009;28;20208;-76
2021/12/20 04:07:32;;;;;;;25.17;11.63;;;;;;;5.02;71.37;94344.94;4992507;28;20610;-76
2021/12/20 04:09:58;;;;;;;17.00;9.23;;;;;;;5.06;71.72;94359.22;4992621;28;20259;-76
2021/12/20 04:12:23;;;;;;;16.83;9.67;;;;;;;4.99;71.92;94348.75;4992555;28;20184;-76
2021/12/20 04:14:49;;;;;;;11.33;7.07;;;;;;;5.00;72.51;94357.38;4992604;28;20189;-76
2021/12/20 04:17:14;;;;;;;10.57;6.70;;;;;;;4.95;72.81;94363.16;4992690;28;20224;-76
2021/12/20 04:19:39;;;;;;;9.73;6.93;;;;;;;4.92;73.32;94368.75;4992496;28;20181;-76
2021/12/20 04:22:05;;;;;;;13.63;7.30;;;;;;;4.92;73.71;94368.75;4992195;28;20212;-76
2021/12/20 04:24:31;;;;;;;9.03;6.03;;;;;;;4.86;73.86;94374.72;4992224;28;20192;-76
2021/12/20 04:26:56;;;;;;;10.80;7.10;;;;;;;4.85;74.04;94378.31;4992103;28;20228;-76
2021/12/20 04:29:22;;;;;;;14.20;7.03;;;;;;;4.84;74.35;94385.31;4992369;28;20729;-77
2021/12/20 04:31:47;;;;;;;9.00;5.70;;;;;;;4.87;74.20;94377.13;4991976;28;20185;-77
2021/12/20 04:34:13;;;;;;;12.83;7.43;;;;;;;4.71;74.37;94348.72;4992559;28;20180;-76
2021/12/20 04:36:38;;;;;;;9.93;5.90;;;;;;;4.88;74.45;94381.34;4992169;28;20184;-75
2021/12/20 04:39:07;;;;;;;7.73;5.20;;;;;;;4.78;74.84;94378.25;4992213;28;20227;-76
2021/12/20 04:41:33;;;;;;;9.43;6.40;;;;;;;4.80;74.79;94380.69;4992332;28;20555;-76
2021/12/20 04:43:58;;;;;;;11.93;6.73;;;;;;;4.78;75.15;94386.06;4992127;28;20165;-75
2021/12/20 04:46:23;;;;;;;13.97;6.70;;;;;;;4.76;74.88;94384.63;4992097;28;20181;-75
2021/12/20 04:48:49;;;;;;;14.00;6.50;;;;;;;4.59;74.96;94389.28;4991912;28;20185;-75
2021/12/20 04:51:14;;;;;;;8.00;5.93;;;;;;;4.67;74.77;94383.97;4991121;28;20319;-75
2021/12/20 04:53:40;;;;;;;7.90;5.80;;;;;;;4.71;74.61;94385.22;4990450;28;20553;-76
2021/12/20 04:56:05;;;;;;;7.47;5.10;;;;;;;4.77;74.30;94394.88;4992318;28;20177;-77
2021/12/20 04:58:31;;;;;;;12.67;5.50;;;;;;;4.74;74.46;94390.06;4992134;28;20721;-76
2021/12/20 05:00:56;;;;;;;8.03;5.20;;;;;;;4.79;74.57;94395.50;4981998;28;20195;-76
2021/12/20 05:03:21;;;;;;;8.13;6.07;;;;;;;4.80;74.34;94406.75;4991554;28;20693;-76
2021/12/20 05:05:47;;;;;;;8.70;4.93;;;;;;;4.72;74.04;94394.66;4992124;28;20598;-76
2021/12/20 05:08:14;;;;;;;8.83;5.47;;;;;;;4.71;74.77;94395.63;4991787;28;20212;-76
2021/12/20 05:10:41;;;;;;;7.17;4.90;;;;;;;4.74;74.98;94413.53;4991775;28;20176;-75
2021/12/20 05:13:10;;;;;;;8.73;4.50;;;;;;;4.60;75.35;94418.78;4994264;28;20204;-75
2021/12/20 05:15:37;;;;;;;9.27;5.17;;;;;;;4.53;75.71;94409.09;4995867;28;20737;-75
2021/12/20 05:18:05;;;;;;;10.03;5.50;;;;;;;4.37;75.41;94400.69;4995975;28;20177;-76
2021/12/20 05:20:30;;;;;;;8.13;4.90;;;;;;;4.34;76.08;94429.72;4995257;28;20623;-76
2021/12/20 05:22:56;;;;;;;7.93;5.00;;;;;;;4.16;77.00;94423.09;4995236;28;20201;-76
2021/12/20 05:25:23;;;;;;;9.57;5.13;;;;;;;4.12;77.63;94415.84;4995927;28;20185;-76
2021/12/20 05:27:49;;;;;;;8.87;5.10;;;;;;;4.13;77.35;94417.47;4995164;28;20225;-76
2021/12/20 05:30:15;;;;;;;8.53;5.00;;;;;;;4.15;77.18;94411.06;4994926;28;20192;-76
2021/12/20 05:32:40;;;;;;;11.50;4.80;;;;;;;4.32;77.13;94431.72;4994969;28;20235;-76
2021/12/20 05:35:08;;;;;;;10.73;5.67;;;;;;;4.35;76.63;94426.94;4992989;28;20189;-75
2021/12/20 05:37:34;;;;;;;7.80;5.20;;;;;;;4.39;76.69;94438.63;4994098;28;20192;-76
2021/12/20 05:40:00;;;;;;;9.37;4.50;;;;;;;4.18;76.67;94389.06;4994316;28;20186;-76
2021/12/20 05:42:25;;;;;;;7.10;5.37;;;;;;;4.42;76.14;94413.97;4993396;28;20213;-77
2021/12/20 05:44:51;;;;;;;8.20;5.67;;;;;;;4.58;nan;94437.22;4994611;28;20263;-77
2021/12/20 05:47:22;;;;;;;9.40;5.83;;;;;;;4.58;76.24;94442.44;4995386;28;20189;-76
2021/12/20 05:49:48;;;;;;;9.00;5.60;;;;;;;4.46;76.23;94397.00;4994978;28;20654;-78
2021/12/20 05:52:13;;;;;;;8.47;5.87;;;;;;;4.54;75.67;94428.16;4995584;28;20599;-77
2021/12/20 05:54:39;;;;;;;11.67;6.00;;;;;;;4.60;76.04;94424.78;4995025;28;20242;-76
2021/12/20 05:57:05;;;;;;;12.17;6.30;;;;;;;4.58;75.89;94432.00;4995387;28;20203;-76
2021/12/20 05:59:31;;;;;;;14.87;8.10;;;;;;;4.58;76.25;94436.41;4995095;28;20165;-75
2021/12/20 06:01:56;;;;;;;11.30;5.43;;;;;;;4.54;75.46;94422.94;4995090;28;20704;-76
2021/12/20 06:04:21;;;;;;;9.73;5.77;;;;;;;4.53;75.89;94439.56;4995044;28;20232;-76
2021/12/20 06:06:47;;;;;;;12.20;7.03;;;;;;;4.37;75.89;94424.16;4994217;28;20652;-76
2021/12/20 06:09:13;;;;;;;16.50;7.10;;;;;;;4.47;76.05;94442.91;4994163;28;20189;-76
2021/12/20 06:11:38;;;;;;;14.33;8.63;;;;;;;4.45;76.34;94443.09;4994226;28;21029;-76
2021/12/20 06:14:04;;;;;;;15.10;7.70;;;;;;;4.48;76.63;94450.53;4993415;28;20268;-76
2021/12/20 06:16:29;;;;;;;15.33;7.93;;;;;;;4.48;76.75;94441.91;4994410;28;20215;-76
2021/12/20 06:18:55;;;;;;;13.93;7.67;;;;;;;4.47;76.44;94441.09;4994498;28;20196;-76
2021/12/20 06:21:20;;;;;;;15.47;7.33;;;;;;;4.58;76.38;94452.88;4994615;28;20185;-76
2021/12/20 06:23:46;;;;;;;15.90;8.53;;;;;;;4.52;76.01;94448.38;4993330;28;20577;-76
2021/12/20 06:26:12;;;;;;;23.37;8.90;;;;;;;4.65;75.87;94461.56;4994543;28;20212;-76
2021/12/20 06:28:38;;;;;;;13.90;8.40;;;;;;;4.55;76.01;94432.38;4994554;28;20172;-76
2021/12/20 06:31:03;;;;;;;13.33;7.10;;;;;;;4.70;75.64;94461.00;4994455;28;20674;-76
2021/12/20 06:33:29;;;;;;;14.57;7.33;;;;;;;4.69;75.97;94465.38;4994444;28;20207;-76
2021/12/20 06:35:54;;;;;;;13.87;7.47;;;;;;;4.73;75.74;94453.63;4994721;28;20188;-76
2021/12/20 06:38:21;;;;;;;12.13;7.20;;;;;;;4.74;74.97;94451.81;4994437;28;20199;-76
2021/12/20 06:40:50;;;;;;;11.87;6.80;;;;;;;4.60;74.98;94440.44;4994679;28;20181;-76
2021/12/20 06:43:16;;;;;;;14.23;6.60;;;;;;;4.72;75.19;94465.03;4994455;28;20201;-76
2021/12/20 06:45:45;;;;;;;14.97;7.13;;;;;;;4.74;74.74;94460.44;4994207;28;20188;-75
2021/12/20 06:48:15;;;;;;;8.63;4.83;;;;;;;4.65;73.40;94440.69;4994142;28;20185;-76
2021/12/20 06:50:41;;;;;;;13.93;7.20;;;;;;;4.78;73.57;94466.91;4994094;28;20177;-76
2021/12/20 06:53:07;;;;;;;12.23;5.67;;;;;;;4.81;73.41;94465.72;4994240;28;20185;-76
2021/12/20 06:55:34;;;;;;;19.23;7.40;;;;;;;4.62;73.98;94435.84;4994423;28;20177;-75
2021/12/20 06:57:59;;;;;;;8.70;5.53;;;;;;;4.84;73.96;94447.88;4985649;28;20188;-76
2021/12/20 07:00:26;;;;;;;10.03;5.97;;;;;;;4.74;74.35;94467.47;4994049;28;20181;-75
2021/12/20 07:02:52;;;;;;;10.07;6.03;;;;;;;4.69;74.47;94468.00;4994083;28;20262;-75
2021/12/20 07:05:17;;;;;;;12.07;6.63;;;;;;;4.67;74.88;94464.75;4993813;28;20267;-75
2021/12/20 07:07:46;;;;;;;10.73;6.83;;;;;;;4.73;74.78;94458.84;4993729;28;20177;-76
2021/12/20 07:10:11;;;;;;;14.97;7.70;;;;;;;4.72;74.51;94475.47;4993735;28;20204;-75
2021/12/20 07:12:38;;;;;;;17.03;9.17;;;;;;;4.77;74.31;94473.09;4993798;28;20631;-75
2021/12/20 07:15:11;;;;;;;12.30;6.77;;;;;;;4.76;74.60;94461.03;4993839;28;20666;-75
2021/12/20 07:17:37;;;;;;;21.03;11.00;;;;;;;4.84;74.42;94468.75;4993762;28;20185;-75
2021/12/20 07:20:03;;;;;;;14.07;7.23;;;;;;;4.86;74.15;94463.34;4993555;28;20190;-75
2021/12/20 07:22:28;;;;;;;23.30;9.57;;;;;;;4.81;74.12;94461.31;4993520;28;20196;-75
2021/12/20 07:24:54;;;;;;;18.80;9.90;;;;;;;4.96;74.40;94466.47;4993389;28;20188;-76
2021/12/20 07:27:19;;;;;;;16.47;8.60;;;;;;;5.08;74.52;94467.59;4993082;28;20312;-75
2021/12/20 07:29:45;;;;;;;16.17;9.17;;;;;;;5.06;73.13;94440.91;4993482;28;20233;-75
2021/12/20 07:32:11;;;;;;;19.37;13.37;;;;;;;4.98;73.16;94435.00;4993529;28;20185;-75
2021/12/20 07:34:37;;;;;;;19.70;12.63;;;;;;;5.28;73.09;94472.97;4993027;28;20748;-75
2021/12/20 07:37:03;;;;;;;24.83;12.30;;;;;;;5.33;73.54;94473.25;4993169;28;20200;-75
2021/12/20 07:39:29;;;;;;;20.43;10.70;;;;;;;5.34;72.71;94453.97;4993137;28;20185;-75
2021/12/20 07:41:55;;;;;;;19.63;10.80;;;;;;;5.49;72.72;94472.16;4993266;28;20243;-75
2021/12/20 07:44:21;;;;;;;15.63;8.63;;;;;;;5.60;71.11;94475.06;4993181;28;20613;-75
2021/12/20 07:46:47;;;;;;;14.83;8.57;;;;;;;5.68;70.98;94479.34;4993254;28;20563;-76
2021/12/20 07:49:12;;;;;;;17.80;8.57;;;;;;;6.01;71.14;94466.53;4993272;28;20277;-76
2021/12/20 07:51:38;;;;;;;14.60;7.57;;;;;;;6.40;68.53;94474.56;4993317;28;20239;-76
2021/12/20 07:54:03;;;;;;;19.33;11.97;;;;;;;6.49;68.50;94469.97;4991404;28;20180;-75
2021/12/20 07:56:28;;;;;;;27.60;13.67;;;;;;;6.83;67.72;94487.41;4992955;28;20617;-76
2021/12/20 07:58:55;;;;;;;25.30;15.63;;;;;;;8.51;66.61;94492.25;4992843;28;20519;-76
2021/12/20 08:01:21;;;;;;;21.00;11.83;;;;;;;11.27;56.95;94489.13;4993176;28;20635;-76
2021/12/20 08:03:47;;;;;;;15.47;9.20;;;;;;;13.20;50.51;94500.44;4993102;28;20215;-77
2021/12/20 08:06:12;;;;;;;16.10;9.37;;;;;;;12.99;49.24;94498.41;4992945;28;20185;-77
2021/12/20 08:08:39;;;;;;;1999.90;999.90;;;;;;;12.05;50.45;94504.81;4993012;28;20177;-77
2021/12/20 08:11:04;;;;;;;274.33;177.50;;;;;;;11.02;52.90;94502.41;4992936;28;20192;-77
2021/12/20 08:13:31;;;;;;;141.87;129.23;;;;;;;9.78;54.38;94506.06;4992825;28;20181;-73
2021/12/20 08:15:56;;;;;;;218.77;197.73;;;;;;;9.11;56.70;94511.16;4992412;28;20181;-75
2021/12/20 08:18:22;;;;;;;483.53;446.60;;;;;;;8.68;58.93;94504.69;4992528;28;20183;-76
2021/12/20 08:20:48;;;;;;;1002.43;912.37;;;;;;;8.18;59.91;94514.09;4992649;28;20181;-76
2021/12/20 08:23:13;;;;;;;754.10;697.00;;;;;;;7.95;60.43;94521.59;4992547;28;20216;-75
2021/12/20 08:25:43;;;;;;;401.57;359.10;;;;;;;7.74;61.49;94511.28;4992210;28;20264;-75
2021/12/20 08:28:09;;;;;;;400.97;378.87;;;;;;;7.50;62.09;94504.84;4992329;28;20173;-76
2021/12/20 08:30:34;;;;;;;954.50;891.47;;;;;;;7.39;62.61;94523.75;4992707;28;20551;-75
2021/12/20 08:33:00;;;;;;;998.77;924.83;;;;;;;6.91;63.08;94481.19;4992220;28;20275;-75
2021/12/20 08:35:26;;;;;;;824.90;770.47;;;;;;;6.87;64.45;94499.06;4992195;28;20239;-75
2021/12/20 08:37:53;;;;;;;834.10;779.07;;;;;;;6.88;64.12;94511.16;4992023;28;20622;-74
2021/12/20 08:40:20;;;;;;;711.70;666.50;;;;;;;6.67;64.47;94503.41;4992143;28;20236;-74
2021/12/20 08:42:46;;;;;;;580.13;544.93;;;;;;;6.70;64.91;94508.28;4992326;28;20219;-74
2021/12/20 08:45:15;;;;;;;764.53;714.10;;;;;;;6.58;65.21;94488.91;4992463;28;20177;-76
2021/12/20 08:47:41;;;;;;;739.37;691.13;;;;;;;6.49;65.09;94513.63;4991277;28;20189;-75
2021/12/20 08:50:13;;;;;;;612.37;575.13;;;;;;;6.38;65.76;94517.59;4992324;28;20177;-76
2021/12/20 08:52:38;;;;;;;569.07;536.63;;;;;;;6.37;66.10;94527.22;4992307;28;20943;-76
2021/12/20 08:55:05;;;;;;;591.27;556.17;;;;;;;6.39;65.94;94522.63;4992426;28;20216;-75
2021/12/20 08:57:31;;;;;;;690.30;645.80;;;;;;;5.99;66.24;94505.88;4991984;28;20240;-75
2021/12/20 08:59:56;;;;;;;334.77;316.47;;;;;;;5.87;66.59;94496.16;4992100;28;20184;-75
2021/12/20 09:02:22;;;;;;;14.43;6.93;;;;;;;5.90;67.33;94506.22;4991873;28;20215;-75
2021/12/20 09:04:47;;;;;;;12.10;6.87;;;;;;;5.95;67.47;94514.31;4991880;28;20586;-74
2021/12/20 09:07:16;;;;;;;16.57;9.33;;;;;;;5.92;68.18;94499.81;4991993;28;20213;-75
2021/12/20 09:09:47;;;;;;;14.70;8.57;;;;;;;6.14;67.89;94518.06;4989877;28;20280;-74
2021/12/20 09:12:15;;;;;;;10.87;6.03;;;;;;;6.22;67.37;94516.09;4990764;28;20212;-75
2021/12/20 09:14:41;;;;;;;8.37;5.40;;;;;;;6.21;66.85;94516.28;4990848;28;20243;-75
2021/12/20 09:17:07;;;;;;;11.83;6.20;;;;;;;6.25;66.51;94509.66;4990877;28;20530;-77
2021/12/20 09:19:35;;;;;;;17.13;8.73;;;;;;;6.13;65.98;94500.75;4992138;28;20177;-77
2021/12/20 09:22:00;;;;;;;8.07;4.60;;;;;;;5.99;65.85;94484.19;4992499;28;20217;-77
2021/12/20 09:24:26;;;;;;;5.73;3.80;;;;;;;6.06;65.97;94498.09;4992272;28;20212;-76
2021/12/20 09:26:51;;;;;;;7.30;4.33;;;;;;;6.10;66.35;94496.72;4992102;28;20550;-76
2021/12/20 09:29:17;;;;;;;4.30;3.03;;;;;;;6.10;66.14;94495.91;4992231;28;20231;-77
2021/12/20 09:31:44;;;;;;;6.27;3.37;;;;;;;6.28;66.31;94510.09;4991264;28;20181;-77
2021/12/20 09:34:10;;;;;;;13.13;5.73;;;;;;;6.34;65.73;94509.31;4990744;28;20260;-76
2021/12/20 09:36:35;;;;;;;7.90;4.50;;;;;;;6.24;65.74;94479.28;4991400;28;20185;-77
2021/12/20 09:39:06;;;;;;;6.13;3.97;;;;;;;6.40;65.51;94503.31;4992000;28;20601;-76
2021/12/20 09:44:05;;;;;;;5.77;4.20;;;;;;;6.50;64.85;94508.19;4992094;28;20213;-76
2021/12/20 09:46:31;;;;;;;9.63;5.40;;;;;;;6.44;64.56;94501.94;4991844;28;20212;-76
2021/12/20 09:48:57;;;;;;;7.53;4.40;;;;;;;6.26;64.39;94496.41;4990190;28;20208;-76
2021/12/20 09:51:24;;;;;;;9.43;4.43;;;;;;;6.32;65.14;94507.88;4990937;28;20183;-76
2021/12/20 09:53:49;;;;;;;9.97;4.93;;;;;;;6.32;65.09;94492.19;4991005;28;20188;-76
2021/12/20 09:56:17;;;;;;;7.50;3.90;;;;;;;6.25;65.36;94484.34;4990298;28;20185;-76
2021/12/20 09:58:46;;;;;;;5.37;3.60;;;;;;;6.14;65.98;94478.88;4993643;28;20204;-75
2021/12/20 10:01:13;;;;;;;31.37;11.03;;;;;;;6.14;67.56;94492.72;4995369;28;20663;-75
2021/12/20 10:03:39;;;;;;;7.87;3.67;;;;;;;6.05;65.69;94473.78;4995101;28;20192;-75
2021/12/20 10:06:05;;;;;;;8.87;4.10;;;;;;;6.16;65.64;94485.50;4994896;28;20185;-80
2021/12/20 10:08:37;;;;;;;9.20;4.37;;;;;;;6.19;66.00;94490.34;4995516;28;20176;-75
2021/12/20 10:11:05;;;;;;;35.23;6.80;;;;;;;6.27;66.43;94502.44;4986824;28;20189;-76
2021/12/20 10:13:33;;;;;;;10.63;5.53;;;;;;;6.24;66.94;94490.56;4995342;28;20619;-76
2021/12/20 10:16:02;;;;;;;4.80;3.43;;;;;;;6.11;66.26;94484.47;4994581;28;20583;-77
2021/12/20 10:18:31;;;;;;;5.40;2.97;;;;;;;6.21;65.51;94488.34;4995455;28;20185;-77
2021/12/20 10:20:59;;;;;;;6.70;3.73;;;;;;;5.90;66.86;94461.81;4995231;28;20184;-77
2021/12/20 10:23:33;;;;;;;8.83;4.70;;;;;;;5.93;66.76;94474.50;4995096;28;20205;-77
2021/12/20 10:26:02;;;;;;;9.70;4.63;;;;;;;6.05;67.08;94502.50;4994327;28;20185;-75
2021/12/20 10:28:34;;;;;;;12.63;5.87;;;;;;;6.11;67.19;94503.56;4993278;28;20702;-75
2021/12/20 10:31:06;;;;;;;6.80;4.43;;;;;;;6.14;67.07;94503.16;4993615;28;20218;-74
2021/12/20 10:33:32;;;;;;;10.37;4.87;;;;;;;5.95;67.93;94475.13;4993269;28;20661;-74
2021/12/20 10:36:00;;;;;;;8.37;4.57;;;;;;;6.08;68.22;94498.72;4993297;28;20185;-74
2021/12/20 10:38:25;;;;;;;7.70;4.77;;;;;;;6.03;68.81;94499.31;4992139;28;20177;-74
2021/12/20 10:41:02;;;;;;;7.23;4.20;;;;;;;5.83;69.41;94502.72;4991203;28;20544;-74
2021/12/20 10:43:35;;;;;;;6.30;4.37;;;;;;;5.72;70.30;94505.84;4991458;28;20210;-75
2021/12/20 10:46:18;;;;;;;6.03;3.57;;;;;;;5.73;70.95;94510.91;4992409;28;20575;-75
2021/12/20 10:48:48;;;;;;;6.20;4.33;;;;;;;5.76;71.39;94504.50;4992536;28;20686;-75
2021/12/20 10:51:34;;;;;;;11.67;5.87;;;;;;;5.81;71.72;94492.47;4992548;28;20208;-75
2021/12/20 10:54:02;;;;;;;8.50;5.27;;;;;;;5.82;71.96;94464.56;4992742;28;20188;-75
2021/12/20 10:56:30;;;;;;;10.03;5.23;;;;;;;5.78;70.86;94451.09;4993129;28;20193;-75
2021/12/20 10:58:58;;;;;;;18.03;8.93;;;;;;;6.07;69.90;94497.91;4992799;28;20260;-75
2021/12/20 11:04:25;;;;;;;11.07;6.40;;;;;;;6.22;69.20;94499.63;4992818;28;20205;-75
2021/12/20 11:09:04;;;;;;;18.50;7.87;;;;;;;6.20;69.57;94497.19;4992770;28;20264;-75
2021/12/20 11:10:00;;;;;;;10.53;5.37;;;;;;;6.01;68.94;94484.81;4991781;28;20193;-76
2021/12/20 11:12:32;;;;;;;13.90;7.10;;;;;;;5.98;69.50;94504.28;4992693;28;20173;-76
2021/12/20 11:15:12;;;;;;;10.23;5.10;;;;;;;5.97;70.45;94500.03;4992470;28;20631;-75
2021/12/20 11:17:44;;;;;;;10.47;5.10;;;;;;;6.09;69.59;94502.94;4992564;28;20181;-75
2021/12/20 11:20:09;;;;;;;8.30;4.03;;;;;;;6.05;68.43;94492.06;4992367;28;20662;-75
2021/12/20 11:22:35;;;;;;;5.57;3.30;;;;;;;6.02;68.73;94494.25;4992324;28;20263;-75
2021/12/20 11:25:04;;;;;;;7.83;3.60;;;;;;;5.96;69.39;94489.81;4992271;28;20259;-75
2021/12/20 11:27:34;;;;;;;8.93;3.47;;;;;;;5.97;69.14;94481.75;4992239;28;20173;-75
2021/12/20 11:30:20;;;;;;;6.10;4.03;;;;;;;5.99;69.12;94471.13;4992305;28;20224;-75
2021/12/20 11:32:47;;;;;;;11.13;6.00;;;;;;;5.86;69.07;94476.25;4992043;28;20635;-75
2021/12/20 11:35:14;;;;;;;7.43;4.67;;;;;;;5.86;69.80;94471.03;4992083;28;20180;-76
2021/12/20 11:37:40;;;;;;;10.20;5.33;;;;;;;5.80;69.27;94475.19;4991836;28;20641;-76
2021/12/20 11:40:08;;;;;;;9.10;5.40;;;;;;;5.80;69.74;94477.00;4992002;28;20188;-76
2021/12/20 11:42:33;;;;;;;7.47;4.73;;;;;;;5.62;70.00;94461.81;4991638;28;20205;-76
2021/12/20 11:45:03;;;;;;;12.40;6.17;;;;;;;5.80;69.93;94490.84;4990928;28;20626;-76
2021/12/20 11:47:36;;;;;;;10.87;5.70;;;;;;;5.85;70.38;94495.53;4993232;28;20181;-77
2021/12/20 11:50:07;;;;;;;9.43;4.63;;;;;;;5.79;69.93;94491.06;4993749;28;20546;-77